createdAt,value
2017-08-06T00:00:46.620Z,81.80
2017-08-06T00:03:14.141Z,81.70
2017-08-06T00:05:42.098Z,81.70
2017-08-06T00:08:09.637Z,81.70
2017-08-06T00:10:37.184Z,81.70
2017-08-06T00:13:05.085Z,81.70
2017-08-06T00:15:32.614Z,81.60
2017-08-06T00:18:00.164Z,81.50
2017-08-06T00:20:28.061Z,81.30
2017-08-06T00:22:55.630Z,81.40
2017-08-06T00:25:23.180Z,81.50
2017-08-06T00:27:51.035Z,81.40
2017-08-06T00:30:18.578Z,81.40
2017-08-06T00:32:46.140Z,81.30
2017-08-06T00:35:14.043Z,81.30
2017-08-06T00:37:41.601Z,81.30
2017-08-06T00:40:09.157Z,81.30
2017-08-06T00:42:37.011Z,81.50
2017-08-06T00:45:04.580Z,81.30
2017-08-06T00:47:32.108Z,81.30
2017-08-06T00:49:59.946Z,81.20
2017-08-06T00:52:28.261Z,81.70
2017-08-06T00:54:55.801Z,80.90
2017-08-06T00:57:24.128Z,80.80
2017-08-06T00:59:51.678Z,80.80
2017-08-06T01:02:19.244Z,81.00
2017-08-06T01:04:47.616Z,80.50
2017-08-06T01:07:15.149Z,81.10
2017-08-06T01:09:42.662Z,81.10
2017-08-06T01:12:10.498Z,81.20
2017-08-06T01:14:38.025Z,81.40
2017-08-06T01:17:06.338Z,81.50
2017-08-06T01:19:34.234Z,81.50
2017-08-06T01:22:01.775Z,81.50
2017-08-06T01:24:29.304Z,81.60
2017-08-06T01:26:57.149Z,81.70
2017-08-06T01:29:24.702Z,81.90
2017-08-06T01:31:52.235Z,82.10
2017-08-06T01:34:20.093Z,82.20
2017-08-06T01:36:47.618Z,82.20
2017-08-06T01:39:15.154Z,82.10
2017-08-06T01:41:43.763Z,82.80
2017-08-06T01:44:11.324Z,82.10
2017-08-06T01:46:38.864Z,82.00
2017-08-06T01:49:07.534Z,82.10
2017-08-06T01:51:35.096Z,82.10
2017-08-06T01:54:02.637Z,81.90
2017-08-06T01:56:30.480Z,81.90
2017-08-06T01:58:58.032Z,81.90
2017-08-06T02:01:27.553Z,81.70
2017-08-06T02:03:55.127Z,81.40
2017-08-06T02:06:22.665Z,81.40
2017-08-06T02:08:50.214Z,81.50
2017-08-06T02:11:17.933Z,81.70
2017-08-06T02:13:45.473Z,81.80
2017-08-06T02:16:13.019Z,82.00
2017-08-06T02:18:40.843Z,81.90
2017-08-06T02:21:08.416Z,81.90
2017-08-06T02:23:35.986Z,81.80
2017-08-06T02:26:03.894Z,81.60
2017-08-06T02:28:31.453Z,81.60
2017-08-06T02:30:59.005Z,81.60
2017-08-06T02:33:26.831Z,81.50
2017-08-06T02:35:54.392Z,81.40
2017-08-06T02:38:21.942Z,81.30
2017-08-06T02:40:49.870Z,81.10
2017-08-06T02:43:17.430Z,80.90
2017-08-06T02:45:44.972Z,80.70
2017-08-06T02:48:12.876Z,80.70
2017-08-06T02:50:40.422Z,80.70
2017-08-06T02:53:07.965Z,80.70
2017-08-06T02:55:35.842Z,80.70
2017-08-06T02:58:03.365Z,80.30
2017-08-06T03:00:30.899Z,79.40
2017-08-06T03:02:59.556Z,79.10
2017-08-06T03:05:27.106Z,78.60
2017-08-06T03:07:54.644Z,78.30
2017-08-06T03:10:22.527Z,78.50
2017-08-06T03:12:50.304Z,78.10
2017-08-06T03:15:17.858Z,78.20
2017-08-06T03:17:45.678Z,78.10
2017-08-06T03:20:13.249Z,78.30
2017-08-06T03:22:40.828Z,78.40
2017-08-06T03:25:08.735Z,78.10
2017-08-06T03:27:36.269Z,78.00
2017-08-06T03:30:03.828Z,77.80
2017-08-06T03:32:31.766Z,77.80
2017-08-06T03:34:59.288Z,77.80
2017-08-06T03:37:27.634Z,77.50
2017-08-06T03:39:55.542Z,77.50
2017-08-06T03:42:23.066Z,77.40
2017-08-06T03:44:50.623Z,77.40
2017-08-06T03:47:18.495Z,77.10
2017-08-06T03:49:46.050Z,76.80
2017-08-06T03:52:13.594Z,76.70
2017-08-06T03:54:41.430Z,76.40
2017-08-06T03:57:09.742Z,76.30
2017-08-06T03:59:37.247Z,76.10
2017-08-06T04:02:04.812Z,75.90
2017-08-06T04:04:32.355Z,76.20
2017-08-06T04:06:59.895Z,76.10
2017-08-06T04:09:27.513Z,76.10
2017-08-06T04:11:55.082Z,75.90
2017-08-06T04:14:23.393Z,75.20
2017-08-06T04:16:50.953Z,75.20
2017-08-06T04:19:18.498Z,75.30
2017-08-06T04:21:46.051Z,75.20
2017-08-06T04:24:13.812Z,75.00
2017-08-06T04:26:41.348Z,74.80
2017-08-06T04:29:08.890Z,74.60
2017-08-06T04:31:36.763Z,74.30
2017-08-06T04:34:04.304Z,74.10
2017-08-06T04:36:31.831Z,73.80
2017-08-06T04:38:59.737Z,73.70
2017-08-06T04:41:27.308Z,73.50
2017-08-06T04:43:54.876Z,73.50
2017-08-06T04:46:22.804Z,73.40
2017-08-06T04:48:50.336Z,72.90
2017-08-06T04:51:17.848Z,72.40
2017-08-06T04:53:45.724Z,72.50
2017-08-06T04:56:13.260Z,72.20
2017-08-06T04:58:40.767Z,72.10
2017-08-06T05:01:09.089Z,71.70
2017-08-06T05:03:36.650Z,71.70
2017-08-06T05:06:04.178Z,71.60
2017-08-06T05:08:32.805Z,71.60
2017-08-06T05:11:00.378Z,71.50
2017-08-06T05:13:27.916Z,71.80
2017-08-06T05:15:55.776Z,72.00
2017-08-06T05:18:23.292Z,72.10
2017-08-06T05:20:51.048Z,71.70
2017-08-06T05:23:18.803Z,71.30
2017-08-06T05:25:46.333Z,71.30
2017-08-06T05:28:13.874Z,71.00
2017-08-06T05:30:41.778Z,70.80
2017-08-06T05:33:09.307Z,70.50
2017-08-06T05:35:36.850Z,70.10
2017-08-06T05:38:05.484Z,69.40
2017-08-06T05:40:33.019Z,69.40
2017-08-06T05:43:00.574Z,69.60
2017-08-06T05:45:28.517Z,69.40
2017-08-06T05:47:56.824Z,69.00
2017-08-06T05:50:24.379Z,69.00
2017-08-06T05:52:52.066Z,69.00
2017-08-06T05:55:19.627Z,68.80
2017-08-06T05:57:47.204Z,68.60
2017-08-06T06:00:15.046Z,68.40
2017-08-06T06:02:42.593Z,68.70
2017-08-06T06:05:10.145Z,68.60
2017-08-06T06:07:37.986Z,68.20
2017-08-06T06:10:05.547Z,67.70
2017-08-06T06:12:33.086Z,67.50
2017-08-06T06:15:00.954Z,67.30
2017-08-06T06:17:28.476Z,66.80
2017-08-06T06:19:56.087Z,66.80
2017-08-06T06:22:24.018Z,66.20
2017-08-06T06:24:51.555Z,65.60
2017-08-06T06:27:19.109Z,65.20
2017-08-06T06:29:47.072Z,64.80
2017-08-06T06:32:14.627Z,64.60
2017-08-06T06:34:42.928Z,63.70
2017-08-06T06:37:10.833Z,63.70
2017-08-06T06:39:38.378Z,62.90
2017-08-06T06:42:05.923Z,62.40
2017-08-06T06:44:36.468Z,61.70
2017-08-06T06:47:04.026Z,61.30
2017-08-06T06:49:50.953Z,61.40
2017-08-06T06:52:18.500Z,60.50
2017-08-06T06:54:46.042Z,60.00
2017-08-06T06:57:13.603Z,59.60
2017-08-06T06:59:41.176Z,59.80
2017-08-06T07:02:11.023Z,60.10
2017-08-06T07:04:38.574Z,60.50
2017-08-06T07:07:06.109Z,60.70
2017-08-06T07:09:33.647Z,61.10
2017-08-06T07:12:01.180Z,59.70
2017-08-06T07:14:29.054Z,59.40
2017-08-06T07:16:56.584Z,59.20
2017-08-06T07:19:24.108Z,59.60
2017-08-06T07:21:51.691Z,59.80
2017-08-06T07:24:19.211Z,60.00
2017-08-06T07:26:47.832Z,60.20
2017-08-06T07:29:15.357Z,60.20
2017-08-06T07:31:42.882Z,60.40
2017-08-06T07:34:10.459Z,60.30
2017-08-06T07:36:37.982Z,60.00
2017-08-06T07:39:05.834Z,59.70
2017-08-06T07:41:33.362Z,59.90
2017-08-06T07:44:00.886Z,59.30
2017-08-06T07:46:28.439Z,58.50
2017-08-06T07:48:55.970Z,58.40
2017-08-06T07:51:23.844Z,58.10
2017-08-06T07:53:51.370Z,58.10
2017-08-06T07:56:19.689Z,58.40
2017-08-06T07:58:47.260Z,58.30
2017-08-06T08:01:14.793Z,58.20
2017-08-06T08:06:36.397Z,58.30
2017-08-06T08:09:05.026Z,58.30
2017-08-06T08:11:32.563Z,58.20
2017-08-06T08:14:00.102Z,58.30
2017-08-06T08:16:28.425Z,57.70
2017-08-06T08:18:55.962Z,57.70
2017-08-06T08:21:23.911Z,57.90
2017-08-06T08:23:52.211Z,58.10
2017-08-06T08:26:38.563Z,57.70
2017-08-06T08:29:06.083Z,57.40
2017-08-06T08:31:33.614Z,57.00
2017-08-06T08:34:02.444Z,57.10
2017-08-06T08:36:29.959Z,57.30
2017-08-06T08:38:57.796Z,57.40
2017-08-06T08:41:25.363Z,57.40
2017-08-06T08:43:52.902Z,56.50
2017-08-06T08:46:20.484Z,56.40
2017-08-06T08:48:48.027Z,56.60
2017-08-06T08:51:15.862Z,56.30
2017-08-06T08:53:44.134Z,55.80
2017-08-06T08:56:11.690Z,55.30
2017-08-06T08:58:39.252Z,54.60
2017-08-06T09:01:08.740Z,54.50
2017-08-06T09:03:37.388Z,54.10
2017-08-06T09:06:04.954Z,53.90
2017-08-06T09:08:32.512Z,53.60
2017-08-06T09:11:00.133Z,53.20
2017-08-06T09:13:27.763Z,53.40
2017-08-06T09:15:55.828Z,53.50
2017-08-06T09:18:23.373Z,52.80
2017-08-06T09:20:50.906Z,52.50
2017-08-06T09:23:18.485Z,52.30
2017-08-06T09:25:46.062Z,52.20
2017-08-06T09:28:14.034Z,52.00
2017-08-06T09:30:41.585Z,51.80
2017-08-06T09:33:09.911Z,52.20
2017-08-06T09:35:38.251Z,51.90
2017-08-06T09:38:05.790Z,51.20
2017-08-06T09:40:33.678Z,51.20
2017-08-06T09:43:01.220Z,50.90
2017-08-06T09:45:28.743Z,51.20
2017-08-06T09:47:56.315Z,51.90
2017-08-06T09:50:23.860Z,51.10
2017-08-06T09:52:51.712Z,50.80
2017-08-06T09:55:20.168Z,50.90
2017-08-06T09:57:47.781Z,50.90
2017-08-06T10:00:15.554Z,50.80
2017-08-06T10:02:43.099Z,50.50
2017-08-06T10:05:11.032Z,50.80
2017-08-06T10:07:38.570Z,50.90
2017-08-06T10:10:06.680Z,50.60
2017-08-06T10:12:34.277Z,50.10
2017-08-06T10:15:01.842Z,49.50
2017-08-06T10:17:29.759Z,49.10
2017-08-06T10:19:57.391Z,48.90
2017-08-06T10:22:24.928Z,48.80
2017-08-06T10:24:52.507Z,48.80
2017-08-06T10:27:20.072Z,48.40
2017-08-06T10:29:48.019Z,47.50
2017-08-06T10:32:15.579Z,47.50
2017-08-06T10:34:43.127Z,47.80
2017-08-06T10:37:10.684Z,47.80
2017-08-06T10:39:38.222Z,47.80
2017-08-06T10:42:06.169Z,47.90
2017-08-06T10:44:33.747Z,48.20
2017-08-06T10:47:01.299Z,48.30
2017-08-06T10:49:29.669Z,47.90
2017-08-06T10:51:57.223Z,47.90
2017-08-06T10:54:25.239Z,48.00
2017-08-06T10:56:53.568Z,48.50
2017-08-06T10:59:21.125Z,48.60
2017-08-06T11:01:48.681Z,49.00
2017-08-06T11:04:17.426Z,48.50
2017-08-06T11:06:46.076Z,47.10
2017-08-06T11:09:13.657Z,47.10
2017-08-06T11:11:41.198Z,47.40
2017-08-06T11:14:08.794Z,48.00
2017-08-06T11:16:37.116Z,46.60
2017-08-06T11:19:05.034Z,46.50
2017-08-06T11:21:33.351Z,46.70
2017-08-06T11:24:01.673Z,46.70
2017-08-06T11:26:29.241Z,46.70
2017-08-06T11:28:56.787Z,46.50
2017-08-06T11:31:24.653Z,46.60
2017-08-06T11:33:52.290Z,46.30
2017-08-06T11:36:19.831Z,45.80
2017-08-06T11:38:47.399Z,45.50
2017-08-06T11:41:15.609Z,45.30
2017-08-06T11:43:43.473Z,44.90
2017-08-06T11:46:10.992Z,45.10
2017-08-06T11:48:38.546Z,44.70
2017-08-06T11:51:06.110Z,44.20
2017-08-06T11:53:33.676Z,43.90
2017-08-06T11:56:01.577Z,42.90
2017-08-06T11:58:29.141Z,42.70
2017-08-06T12:00:56.685Z,41.90
2017-08-06T12:03:24.245Z,41.80
2017-08-06T12:05:51.827Z,41.60
2017-08-06T12:08:19.836Z,41.50
2017-08-06T12:10:47.471Z,40.60
2017-08-06T12:13:15.198Z,39.50
2017-08-06T12:15:42.751Z,39.30
2017-08-06T12:18:10.304Z,39.60
2017-08-06T12:20:38.299Z,39.60
2017-08-06T12:23:05.872Z,39.10
2017-08-06T12:25:33.430Z,38.80
2017-08-06T12:28:01.031Z,38.80
2017-08-06T12:30:28.641Z,37.50
2017-08-06T12:32:56.599Z,37.20
2017-08-06T12:35:24.159Z,37.20
2017-08-06T12:37:51.677Z,37.00
2017-08-06T12:40:19.318Z,35.70
2017-08-06T12:42:46.857Z,34.40
2017-08-06T12:45:14.729Z,34.00
2017-08-06T12:47:42.291Z,34.70
2017-08-06T12:50:09.978Z,34.70
2017-08-06T12:52:37.547Z,34.30
2017-08-06T12:55:05.844Z,34.50
2017-08-06T12:57:34.514Z,33.30
2017-08-06T13:00:02.056Z,33.30
2017-08-06T13:02:29.642Z,33.00
2017-08-06T13:04:58.019Z,34.20
2017-08-06T13:07:25.550Z,33.70
2017-08-06T13:09:53.422Z,32.90
2017-08-06T13:12:20.941Z,32.40
2017-08-06T13:14:48.470Z,32.10
2017-08-06T13:17:16.784Z,31.70
2017-08-06T13:19:44.335Z,31.00
2017-08-06T13:22:12.357Z,30.70
2017-08-06T13:24:39.892Z,30.40
2017-08-06T13:27:07.456Z,29.80
2017-08-06T13:29:35.043Z,29.50
2017-08-06T13:32:02.619Z,29.10
2017-08-06T13:34:30.600Z,29.00
2017-08-06T13:36:58.933Z,29.00
2017-08-06T13:39:26.464Z,28.90
2017-08-06T13:41:54.016Z,29.10
2017-08-06T13:44:21.590Z,29.10
2017-08-06T13:46:49.494Z,29.30
2017-08-06T13:49:17.068Z,29.50
2017-08-06T13:51:44.648Z,29.40
2017-08-06T13:54:12.990Z,29.60
2017-08-06T13:56:40.530Z,29.50
2017-08-06T13:59:08.436Z,30.00
2017-08-06T14:01:35.961Z,30.30
2017-08-06T14:04:03.500Z,30.30
2017-08-06T14:06:31.112Z,29.90
2017-08-06T14:08:58.649Z,30.00
2017-08-06T14:11:26.530Z,30.00
2017-08-06T14:13:54.082Z,29.90
2017-08-06T14:16:21.638Z,30.50
2017-08-06T14:18:49.180Z,30.70
2017-08-06T14:21:16.757Z,30.40
2017-08-06T14:23:44.754Z,30.30
2017-08-06T14:26:12.435Z,30.00
2017-08-06T14:28:40.010Z,29.60
2017-08-06T14:31:07.582Z,30.00
2017-08-06T14:33:35.126Z,30.10
2017-08-06T14:36:02.959Z,29.80
2017-08-06T14:38:30.562Z,29.70
2017-08-06T14:40:58.899Z,30.00
2017-08-06T14:43:26.469Z,30.00
2017-08-06T14:45:54.021Z,29.90
2017-08-06T14:48:21.933Z,30.40
2017-08-06T14:50:49.476Z,30.70
2017-08-06T14:53:17.791Z,30.50
2017-08-06T14:55:45.397Z,30.50
2017-08-06T14:58:12.937Z,31.20
2017-08-06T15:00:40.775Z,31.70
2017-08-06T15:03:08.395Z,32.00
2017-08-06T15:05:35.957Z,31.70
2017-08-06T15:08:03.535Z,31.30
2017-08-06T15:10:31.891Z,31.60
2017-08-06T15:12:59.742Z,31.60
2017-08-06T15:15:27.278Z,31.90
2017-08-06T15:17:54.788Z,31.70
2017-08-06T15:20:22.382Z,31.50
2017-08-06T15:22:49.951Z,30.00
2017-08-06T15:25:17.773Z,30.20
2017-08-06T15:27:45.319Z,30.20
2017-08-06T15:30:12.847Z,30.40
2017-08-06T15:32:40.393Z,31.20
2017-08-06T15:35:07.953Z,31.00
2017-08-06T15:37:35.880Z,31.70
2017-08-06T15:40:03.411Z,31.20
2017-08-06T15:42:30.946Z,30.90
2017-08-06T15:44:58.509Z,31.00
2017-08-06T15:47:26.067Z,31.60
2017-08-06T15:49:53.938Z,32.20
2017-08-06T15:52:21.498Z,32.30
2017-08-06T15:54:49.057Z,32.40
2017-08-06T15:57:16.647Z,32.60
2017-08-06T15:59:44.188Z,32.30
2017-08-06T16:02:12.078Z,32.20
2017-08-06T16:04:39.607Z,32.00
2017-08-06T16:07:07.158Z,31.20
2017-08-06T16:09:34.727Z,31.00
2017-08-06T16:12:02.316Z,32.10
2017-08-06T16:14:30.191Z,32.80
2017-08-06T16:16:57.992Z,33.00
2017-08-06T16:19:25.546Z,33.40
2017-08-06T16:21:57.113Z,33.30
2017-08-06T16:24:24.657Z,33.90
2017-08-06T16:26:52.529Z,35.40
2017-08-06T16:29:20.112Z,35.30
2017-08-06T16:31:47.707Z,35.20
2017-08-06T16:34:15.288Z,35.50
2017-08-06T16:36:42.814Z,35.50
2017-08-06T16:39:11.669Z,35.10
2017-08-06T16:41:40.013Z,35.20
2017-08-06T16:44:07.562Z,35.10
2017-08-06T16:46:35.140Z,35.30
2017-08-06T16:49:02.715Z,35.70
2017-08-06T16:51:30.798Z,36.10
2017-08-06T16:53:58.353Z,36.30
2017-08-06T16:56:26.114Z,36.50
2017-08-06T16:58:53.685Z,37.40
2017-08-06T17:01:21.274Z,37.60
2017-08-06T17:03:49.334Z,37.60
2017-08-06T17:06:16.933Z,37.30
2017-08-06T17:08:44.480Z,37.60
2017-08-06T17:11:12.046Z,37.10
2017-08-06T17:13:39.613Z,36.70
2017-08-06T17:16:07.429Z,36.60
2017-08-06T17:18:35.065Z,37.40
2017-08-06T17:21:02.611Z,37.10
2017-08-06T17:23:30.256Z,37.70
2017-08-06T17:25:57.823Z,37.90
2017-08-06T17:28:25.779Z,37.90
2017-08-06T17:30:53.364Z,38.20
2017-08-06T17:33:20.940Z,38.50
2017-08-06T17:35:48.514Z,38.90
2017-08-06T17:38:16.095Z,38.80
2017-08-06T17:40:44.046Z,38.40
2017-08-06T17:43:11.647Z,38.00
2017-08-06T17:45:39.229Z,37.70
2017-08-06T17:48:06.836Z,37.40
2017-08-06T17:50:34.375Z,37.20
2017-08-06T17:53:02.257Z,37.20
2017-08-06T17:55:29.792Z,37.20
2017-08-06T17:57:57.353Z,37.70
2017-08-06T18:00:24.952Z,38.00
2017-08-06T18:02:52.519Z,38.60
2017-08-06T18:05:21.165Z,38.20
2017-08-06T18:07:48.692Z,38.30
2017-08-06T18:10:16.274Z,38.40
2017-08-06T18:12:43.936Z,38.50
2017-08-06T18:15:11.510Z,39.60
2017-08-06T18:17:39.365Z,38.90
2017-08-06T18:20:06.935Z,39.10
2017-08-06T18:22:34.540Z,39.20
2017-08-06T18:25:02.960Z,39.80
2017-08-06T18:27:30.536Z,39.80
2017-08-06T18:29:58.441Z,39.80
2017-08-06T18:32:26.754Z,40.20
2017-08-06T18:34:54.323Z,40.20
2017-08-06T18:37:21.905Z,40.30
2017-08-06T18:39:49.470Z,40.60
2017-08-06T18:42:17.324Z,40.90
2017-08-06T18:44:44.884Z,41.10
2017-08-06T18:47:12.449Z,41.20
2017-08-06T18:49:40.038Z,41.30
2017-08-06T18:52:07.580Z,41.40
2017-08-06T18:54:35.467Z,41.60
2017-08-06T18:57:03.048Z,41.70
2017-08-06T18:59:31.459Z,41.90
2017-08-06T19:01:59.044Z,42.00
2017-08-06T19:04:26.631Z,42.00
2017-08-06T19:06:54.535Z,42.30
2017-08-06T19:09:22.114Z,42.60
2017-08-06T19:11:49.674Z,42.60
2017-08-06T19:14:17.248Z,42.80
2017-08-06T19:16:44.806Z,42.90
2017-08-06T19:19:12.683Z,43.00
2017-08-06T19:21:40.322Z,43.10
2017-08-06T19:24:07.902Z,43.30
2017-08-06T19:26:35.560Z,43.30
2017-08-06T19:29:03.192Z,43.50
2017-08-06T19:31:31.875Z,44.00
2017-08-06T19:33:59.466Z,44.10
2017-08-06T19:36:27.095Z,44.20
2017-08-06T19:38:54.670Z,44.40
2017-08-06T19:41:22.289Z,44.70
2017-08-06T19:43:50.154Z,45.10
2017-08-06T19:46:17.804Z,45.60
2017-08-06T19:48:45.610Z,46.10
2017-08-06T19:51:13.237Z,46.50
2017-08-06T19:53:40.834Z,47.10
2017-08-06T19:56:08.854Z,47.40
2017-08-06T19:58:36.481Z,47.80
2017-08-06T20:01:04.107Z,48.20
2017-08-06T20:03:31.703Z,48.50
2017-08-06T20:05:59.315Z,48.70
2017-08-06T20:08:27.301Z,49.00
2017-08-06T20:10:54.894Z,49.20
2017-08-06T20:13:22.452Z,49.30
2017-08-06T20:15:50.804Z,49.60
2017-08-06T20:18:18.392Z,49.60
2017-08-06T20:20:47.079Z,50.00
2017-08-06T20:23:15.400Z,50.30
2017-08-06T20:25:43.005Z,50.40
2017-08-06T20:28:10.591Z,50.70
2017-08-06T20:30:38.179Z,51.20
2017-08-06T20:33:06.057Z,51.60
2017-08-06T20:35:33.626Z,51.80
2017-08-06T20:38:01.233Z,52.10
2017-08-06T20:40:29.791Z,52.20
2017-08-06T20:42:57.353Z,52.30
2017-08-06T20:45:25.244Z,52.50
2017-08-06T20:47:53.609Z,53.00
2017-08-06T20:50:21.177Z,53.00
2017-08-06T20:52:49.555Z,53.50
2017-08-06T20:55:17.099Z,53.60
2017-08-06T20:57:44.960Z,53.80
2017-08-06T21:00:12.495Z,54.00
2017-08-06T21:02:40.022Z,54.30
2017-08-06T21:05:09.379Z,54.90
2017-08-06T21:07:40.672Z,54.90
2017-08-06T21:10:08.626Z,55.10
2017-08-06T21:12:36.153Z,55.30
2017-08-06T21:15:03.711Z,55.50
2017-08-06T21:17:31.298Z,55.60
2017-08-06T21:19:58.868Z,55.80
2017-08-06T21:22:26.802Z,55.90
2017-08-06T21:24:54.333Z,56.10
2017-08-06T21:27:21.915Z,56.10
2017-08-06T21:29:49.512Z,56.10
2017-08-06T21:32:17.055Z,56.10
2017-08-06T21:34:44.922Z,56.20
2017-08-06T21:37:12.465Z,56.40
2017-08-06T21:39:40.059Z,56.60
2017-08-06T21:42:07.637Z,56.80
2017-08-06T21:44:36.000Z,57.00
2017-08-06T21:47:03.929Z,57.10
2017-08-06T21:49:31.456Z,57.20
2017-08-06T21:51:59.006Z,57.30
2017-08-06T21:54:27.347Z,57.50
2017-08-06T21:56:54.905Z,57.50
2017-08-06T21:59:22.853Z,57.60
2017-08-06T22:01:50.382Z,57.70
2017-08-06T22:04:18.741Z,57.80
2017-08-06T22:06:46.318Z,57.90
2017-08-06T22:09:13.863Z,58.00
2017-08-06T22:11:41.694Z,58.10
2017-08-06T22:14:09.285Z,58.20
2017-08-06T22:16:36.851Z,58.40
2017-08-06T22:19:05.182Z,58.60
2017-08-06T22:21:32.755Z,58.70
2017-08-06T22:24:00.629Z,58.80
2017-08-06T22:26:28.170Z,59.00
2017-08-06T22:28:55.691Z,59.10
2017-08-06T22:31:24.085Z,59.40
2017-08-06T22:33:51.612Z,59.40
2017-08-06T22:36:19.431Z,59.50
2017-08-06T22:38:46.963Z,59.70
2017-08-06T22:41:14.487Z,59.80
2017-08-06T22:43:42.075Z,59.80
2017-08-06T22:46:10.348Z,60.00
2017-08-06T22:48:38.935Z,60.10
2017-08-06T22:51:07.245Z,60.10
2017-08-06T22:53:34.800Z,60.20
2017-08-06T22:56:02.371Z,60.10
2017-08-06T22:58:29.890Z,60.30
2017-08-06T23:00:58.550Z,60.40
2017-08-06T23:03:26.123Z,60.40
2017-08-06T23:05:53.691Z,60.60
2017-08-06T23:08:21.260Z,60.70
2017-08-06T23:10:48.805Z,60.90
2017-08-06T23:13:16.633Z,61.10
2017-08-06T23:15:44.175Z,61.20
2017-08-06T23:18:11.702Z,61.30
2017-08-06T23:20:39.261Z,61.50
2017-08-06T23:23:06.822Z,61.60
2017-08-06T23:25:35.438Z,61.90
2017-08-06T23:28:02.979Z,61.90
2017-08-06T23:30:31.268Z,62.10
2017-08-06T23:32:58.876Z,62.20
2017-08-06T23:35:26.431Z,62.30
2017-08-06T23:37:54.292Z,62.50
2017-08-06T23:40:21.833Z,62.40
2017-08-06T23:42:49.393Z,62.50
2017-08-06T23:45:16.962Z,62.60
2017-08-06T23:47:44.509Z,62.70
2017-08-06T23:50:12.344Z,62.90
2017-08-06T23:52:39.886Z,63.10
2017-08-06T23:55:07.422Z,63.20
2017-08-06T23:57:35.011Z,63.20
